Latest Weather Observations for Sydney Harbour

IDN60901

Issued at 8:31 am EST Sunday 19 September 2021 (issued every 10 minutes, with the page automatically refreshed every 10 minutes)

About weather observations | Map of Sydney area stations | Latest observations for Sydney area | Other Formats
Station Details ID: 066196 Name: WEDDING CAKE WEST Lat: -33.84 Lon: 151.26 Height: 6.0 m
Data from the previous 72 hours. | See also: Recent months at Sydney Harbour
Date/Time
EST
Temp
°C
App
Temp
°C
Dew
Point
°C
Rel
Hum
%
Delta-T
°C
Wind Press
QNH
hPa
Press
MSL
hPa
Rain since
9am
mm
Dir  Spd
km/h
Gust
km/h
Spd
kts
Gust
kts
19/08:30am 15.8 - - - - N 17 24 9 13 - - -
19/08:00am 15.1 - - - - NNW 17 22 9 12 - - -
19/07:30am 14.2 - - - - NNW 19 24 10 13 - - -
19/07:00am 13.5 - - - - NNW 19 24 10 13 - - -
19/06:30am 13.2 - - - - NW 19 24 10 13 - - -
19/06:00am 13.2 - - - - NW 22 30 12 16 - - -
19/05:30am 13.2 - - - - NW 24 32 13 17 - - -
19/05:00am 13.5 - - - - NW 24 30 13 16 - - -
19/04:30am 13.9 - - - - NW 24 30 13 16 - - -
19/04:00am 13.2 - - - - NNW 20 26 11 14 - - -
19/03:30am 13.6 - - - - NNW 20 24 11 13 - - -
19/03:00am 13.6 - - - - NNW 17 20 9 11 - - -
19/02:30am 14.5 - - - - NW 17 20 9 11 - - -
19/02:00am 15.0 - - - - W 11 17 6 9 - - -
19/01:30am 15.4 - - - - WNW 13 17 7 9 - - -
19/01:00am 16.3 - - - - WSW 20 30 11 16 - - -
19/12:30am 16.6 - - - - SW 20 26 11 14 - - -
19/12:00am 16.8 - - - - WSW 30 39 16 21 - - -
 
Date/Time
EST
Temp
°C
App
Temp
°C
Dew
Point
°C
Rel
Hum
%
Delta-T
°C
Wind Press
QNH
hPa
Press
MSL
hPa
Rain since
9am
mm
Dir  Spd
km/h
Gust
km/h
Spd
kts
Gust
kts
18/11:30pm 16.9 - - - - SW 22 30 12 16 - - -
18/11:00pm 17.3 - - - - SW 43 52 23 28 - - -
18/10:30pm 17.5 - - - - SW 43 52 23 28 - - -
18/10:00pm 17.8 - - - - WSW 33 50 18 27 - - -
18/09:59pm 17.9 - - - - WSW 32 50 17 27 - - -
18/09:30pm 17.9 - - - - W 30 44 16 24 - - -
18/09:18pm 18.5 - - - - WSW 28 46 15 25 - - -
18/09:00pm 19.0 - - - - W 26 44 14 24 - - -
18/08:30pm 18.6 - - - - WNW 17 24 9 13 - - -
18/08:00pm 19.0 - - - - WNW 15 22 8 12 - - -
18/07:30pm 19.8 - - - - W 17 24 9 13 - - -
18/07:00pm 20.2 - - - - WNW 17 32 9 17 - - -
18/06:30pm 19.7 - - - - WNW 17 24 9 13 - - -
18/06:00pm 19.7 - - - - WNW 15 20 8 11 - - -
18/05:30pm 20.6 - - - - WNW 15 20 8 11 - - -
18/05:00pm 20.6 - - - - W 15 24 8 13 - - -
18/04:30pm 20.4 - - - - WNW 15 24 8 13 - - -
18/04:00pm 19.9 - - - - W 7 17 4 9 - - -
18/03:30pm 18.4 - - - - NNW 9 13 5 7 - - -
18/03:00pm 18.6 - - - - WSW 9 13 5 7 - - -
18/02:30pm 18.6 - - - - SW 11 20 6 11 - - -
18/02:00pm 20.0 - - - - NNE 17 20 9 11 - - -
18/01:30pm 20.6 - - - - ENE 7 11 4 6 - - -
18/01:00pm 20.7 - - - - NNE 26 35 14 19 - - -
18/12:30pm 19.8 - - - - N 26 33 14 18 - - -
18/12:00pm 19.9 - - - - NNE 17 24 9 13 - - -
18/11:30am 18.6 - - - - NNE 32 35 17 19 - - -
18/11:00am 18.6 - - - - NNE 28 32 15 17 - - -
18/10:30am 18.7 - - - - NNE 24 28 13 15 - - -
18/10:00am 19.5 - - - - NNE 20 26 11 14 - - -
18/09:30am 19.0 - - - - NNE 22 26 12 14 - - -
18/09:00am 19.2 - - - - N 20 30 11 16 - - -
18/08:30am 20.6 - - - - N 19 26 10 14 - - -
18/08:00am 18.3 - - - - NNE 19 22 10 12 - - -
18/07:30am 17.9 - - - - NNE 17 20 9 11 - - -
18/07:00am 17.3 - - - - NNE 19 24 10 13 - - -
18/06:30am 17.0 - - - - NNE 13 15 7 8 - - -
18/06:00am 16.8 - - - - NNE 19 24 10 13 - - -
18/05:30am 17.2 - - - - NNE 17 20 9 11 - - -
18/05:00am 17.3 - - - - N 19 22 10 12 - - -
18/04:30am 17.0 - - - - NNE 19 20 10 11 - - -
18/04:00am 17.1 - - - - N 20 24 11 13 - - -
18/03:30am 16.7 - - - - N 19 24 10 13 - - -
18/03:00am 16.8 - - - - N 15 17 8 9 - - -
18/02:30am 16.9 - - - - N 19 22 10 12 - - -
18/02:00am 17.3 - - - - N 20 24 11 13 - - -
18/01:30am 17.4 - - - - N 15 22 8 12 - - -
18/01:00am 17.2 - - - - N 17 20 9 11 - - -
18/12:30am 16.9 - - - - NNE 11 17 6 9 - - -
18/12:00am 16.8 - - - - NNE 11 17 6 9 - - -
 
Date/Time
EST
Temp
°C
App
Temp
°C
Dew
Point
°C
Rel
Hum
%
Delta-T
°C
Wind Press
QNH
hPa
Press
MSL
hPa
Rain since
9am
mm
Dir  Spd
km/h
Gust
km/h
Spd
kts
Gust
kts
17/11:30pm 16.8 - - - - NNE 13 17 7 9 - - -
17/11:00pm 16.9 - - - - N 17 20 9 11 - - -
17/10:30pm 17.0 - - - - NNE 20 26 11 14 - - -
17/10:00pm 17.0 - - - - N 20 28 11 15 - - -
17/09:30pm 16.9 - - - - N 22 28 12 15 - - -
17/09:00pm 17.0 - - - - N 28 35 15 19 - - -
17/08:30pm 17.3 - - - - NNE 37 46 20 25 - - -
17/08:00pm 17.4 - - - - N 39 48 21 26 - - -
17/07:30pm 17.4 - - - - NNE 37 48 20 26 - - -
17/07:00pm 17.4 - - - - NNE 35 46 19 25 - - -
17/06:30pm 17.4 - - - - NNE 33 39 18 21 - - -
17/06:00pm 17.6 - - - - NNE 39 50 21 27 - - -
17/05:30pm 17.6 - - - - NNE 39 46 21 25 - - -
17/05:00pm 17.6 - - - - NNE 37 44 20 24 - - -
17/04:30pm 17.5 - - - - NNE 37 46 20 25 - - -
17/04:00pm 17.4 - - - - NNE 39 44 21 24 - - -
17/03:30pm 17.2 - - - - NNE 37 46 20 25 - - -
17/03:00pm 17.1 - - - - NNE 39 46 21 25 - - -
17/02:30pm 17.1 - - - - NNE 37 44 20 24 - - -
17/02:00pm 17.1 - - - - NNE 35 43 19 23 - - -
17/01:30pm 16.7 - - - - NNE 35 41 19 22 - - -
17/01:00pm 16.6 - - - - NNE 33 39 18 21 - - -
17/12:30pm 16.4 - - - - NNE 33 37 18 20 - - -
17/12:00pm 16.2 - - - - NNE 30 35 16 19 - - -
17/11:30am 16.2 - - - - NNE 28 32 15 17 - - -
17/11:00am 16.1 - - - - NE 30 35 16 19 - - -
17/10:30am 16.3 - - - - NE 26 30 14 16 - - -
17/10:00am 16.4 - - - - NNE 17 20 9 11 - - -
17/09:30am 16.1 - - - - NNE 17 24 9 13 - - -
17/09:00am 15.8 - - - - N 9 13 5 7 - - -
17/08:30am 14.2 - - - - WSW 6 7 3 4 - - -
17/08:00am 14.2 - - - - E 6 9 3 5 - - -
17/07:30am 13.9 - - - - SW 2 6 1 3 - - -
17/07:00am 12.0 - - - - WNW 7 7 4 4 - - -
17/06:30am 11.6 - - - - W 7 9 4 5 - - -
17/06:00am 11.7 - - - - W 7 13 4 7 - - -
17/05:30am 11.6 - - - - W 7 11 4 6 - - -
17/05:00am 11.9 - - - - WSW 7 9 4 5 - - -
17/04:30am 12.2 - - - - SW 6 7 3 4 - - -
17/04:00am 12.3 - - - - WSW 7 11 4 6 - - -
17/03:30am 12.4 - - - - WSW 7 9 4 5 - - -
17/03:00am 12.5 - - - - W 9 11 5 6 - - -
17/02:30am 12.4 - - - - W 7 9 4 5 - - -
17/02:00am 12.6 - - - - WSW 7 11 4 6 - - -
17/01:30am 12.7 - - - - W 9 17 5 9 - - -
17/01:00am 13.1 - - - - WSW 13 15 7 8 - - -
17/12:30am 13.1 - - - - W 13 15 7 8 - - -
17/12:00am 13.5 - - - - WSW 11 13 6 7 - - -
 
Date/Time
EST
Temp
°C
App
Temp
°C
Dew
Point
°C
Rel
Hum
%
Delta-T
°C
Wind Press
QNH
hPa
Press
MSL
hPa
Rain since
9am
mm
Dir  Spd
km/h
Gust
km/h
Spd
kts
Gust
kts
16/11:30pm 13.6 - - - - W 13 15 7 8 - - -
16/11:00pm 13.8 - - - - W 9 13 5 7 - - -
16/10:30pm 14.0 - - - - W 11 13 6 7 - - -
16/10:00pm 14.4 - - - - W 9 11 5 6 - - -
16/09:30pm 14.0 - - - - NNW 4 9 2 5 - - -
16/09:00pm 14.3 - - - - ESE 6 7 3 4 - - -
16/08:30pm 14.0 - - - - ESE 7 7 4 4 - - -
16/08:00pm 14.3 - - - - ESE 6 7 3 4 - - -
16/07:30pm 14.8 - - - - E 9 11 5 6 - - -
16/07:00pm 14.9 - - - - E 11 15 6 8 - - -
16/06:30pm 14.6 - - - - ESE 13 15 7 8 - - -
16/06:00pm 14.7 - - - - ESE 13 19 7 10 - - -
16/05:30pm 15.0 - - - - ESE 13 20 7 11 - - -
16/05:00pm 15.4 - - - - SE 17 20 9 11 - - -
16/04:30pm 15.8 - - - - SE 17 20 9 11 - - -
16/04:00pm 15.9 - - - - SE 15 20 8 11 - - -
16/03:30pm 15.6 - - - - SE 17 20 9 11 - - -
16/03:00pm 15.3 - - - - SE 20 26 11 14 - - -
16/02:30pm 15.0 - - - - SE 20 28 11 15 - - -
16/02:00pm 14.5 - - - - SE 22 28 12 15 - - -
16/01:30pm 14.6 - - - - SSE 26 33 14 18 - - -
16/01:00pm 15.1 - - - - SSE 22 30 12 16 - - -
16/12:30pm 15.0 - - - - SSE 19 26 10 14 - - -
16/12:00pm 14.1 - - - - ESE 17 20 9 11 - - -
16/11:30am 13.8 - - - - SE 20 28 11 15 - - -
16/11:00am 13.9 - - - - S 28 39 15 21 - - -
16/10:30am 14.4 - - - - S 22 28 12 15 - - -
16/10:00am 14.4 - - - - S 24 32 13 17 - - -
16/09:30am 13.5 - - - - SW 17 24 9 13 - - -
16/09:00am 12.1 - - - - W 15 17 8 9 - - -

Latest Capital City Observations: Canberra | Sydney | Melbourne | Brisbane | Adelaide | Perth | Hobart | Darwin

Other formats

Comma delimited format used in spreadsheet applications
http://www.bom.gov.au/fwo/IDN60901/IDN60901.95766.axf

JavaScript Object Notation format (JSON) in row-major order
http://www.bom.gov.au/fwo/IDN60901/IDN60901.95766.json

Data quality

Most of these data are generated automatically and are frequently updated. Quality checks on data are not normally performed. It is possible for incorrect values to appear. Refer to information at About Latest Weather Observations and please check the disclaimer before using these data.